sensor_id;sensor_type;location;lat;lon;timestamp;P1;durP1;ratioP1;P2;durP2;ratioP2
1306;SDS011;646;48.696;9.114;2022-09-06T00:00:06;4.93;;;4.53;;
1306;SDS011;646;48.696;9.114;2022-09-06T00:02:34;4.93;;;4.53;;
1306;SDS011;646;48.696;9.114;2022-09-06T00:05:00;5.33;;;4.93;;
1306;SDS011;646;48.696;9.114;2022-09-06T00:07:25;5.00;;;4.70;;
1306;SDS011;646;48.696;9.114;2022-09-06T00:09:51;5.23;;;4.83;;
1306;SDS011;646;48.696;9.114;2022-09-06T00:12:17;5.80;;;5.40;;
1306;SDS011;646;48.696;9.114;2022-09-06T00:14:42;6.00;;;5.50;;
1306;SDS011;646;48.696;9.114;2022-09-06T00:17:08;5.50;;;5.10;;
1306;SDS011;646;48.696;9.114;2022-09-06T00:19:34;5.07;;;4.77;;
1306;SDS011;646;48.696;9.114;2022-09-06T00:21:59;5.60;;;4.83;;
1306;SDS011;646;48.696;9.114;2022-09-06T00:24:25;5.27;;;4.77;;
1306;SDS011;646;48.696;9.114;2022-09-06T00:26:50;5.03;;;4.70;;
1306;SDS011;646;48.696;9.114;2022-09-06T00:29:16;4.97;;;4.57;;
1306;SDS011;646;48.696;9.114;2022-09-06T00:31:41;5.30;;;4.77;;
1306;SDS011;646;48.696;9.114;2022-09-06T00:34:07;5.10;;;4.70;;
1306;SDS011;646;48.696;9.114;2022-09-06T00:36:32;5.87;;;5.37;;
1306;SDS011;646;48.696;9.114;2022-09-06T00:38:58;5.80;;;5.20;;
1306;SDS011;646;48.696;9.114;2022-09-06T00:41:23;6.97;;;5.57;;
1306;SDS011;646;48.696;9.114;2022-09-06T00:43:49;5.83;;;5.30;;
1306;SDS011;646;48.696;9.114;2022-09-06T00:46:16;5.60;;;5.20;;
1306;SDS011;646;48.696;9.114;2022-09-06T00:48:44;5.73;;;5.33;;
1306;SDS011;646;48.696;9.114;2022-09-06T00:51:12;5.80;;;4.47;;
1306;SDS011;646;48.696;9.114;2022-09-06T00:53:39;5.57;;;5.07;;
1306;SDS011;646;48.696;9.114;2022-09-06T00:56:05;6.33;;;5.73;;
1306;SDS011;646;48.696;9.114;2022-09-06T00:58:31;7.20;;;5.20;;
1306;SDS011;646;48.696;9.114;2022-09-06T01:00:57;6.37;;;5.87;;
1306;SDS011;646;48.696;9.114;2022-09-06T01:03:23;6.00;;;5.50;;
1306;SDS011;646;48.696;9.114;2022-09-06T01:17:25;5.57;;;5.07;;
1306;SDS011;646;48.696;9.114;2022-09-06T01:27:53;4.80;;;4.50;;
1306;SDS011;646;48.696;9.114;2022-09-06T01:30:44;4.73;;;4.43;;
1306;SDS011;646;48.696;9.114;2022-09-06T01:33:16;5.80;;;5.30;;
1306;SDS011;646;48.696;9.114;2022-09-06T01:35:49;5.07;;;4.70;;
1306;SDS011;646;48.696;9.114;2022-09-06T01:38:19;5.50;;;5.13;;
1306;SDS011;646;48.696;9.114;2022-09-06T01:40:45;6.23;;;5.37;;
1306;SDS011;646;48.696;9.114;2022-09-06T01:43:12;6.33;;;4.83;;
1306;SDS011;646;48.696;9.114;2022-09-06T01:48:35;4.93;;;4.53;;
1306;SDS011;646;48.696;9.114;2022-09-06T01:51:14;5.27;;;4.87;;
1306;SDS011;646;48.696;9.114;2022-09-06T01:56:55;5.33;;;4.83;;
1306;SDS011;646;48.696;9.114;2022-09-06T01:59:50;6.93;;;6.33;;
1306;SDS011;646;48.696;9.114;2022-09-06T02:02:40;5.70;;;5.20;;
1306;SDS011;646;48.696;9.114;2022-09-06T02:05:29;5.20;;;4.80;;
1306;SDS011;646;48.696;9.114;2022-09-06T02:08:00;5.20;;;4.80;;
1306;SDS011;646;48.696;9.114;2022-09-06T02:13:21;6.07;;;5.47;;
1306;SDS011;646;48.696;9.114;2022-09-06T02:15:51;5.30;;;4.90;;
1306;SDS011;646;48.696;9.114;2022-09-06T02:18:23;5.77;;;5.30;;
1306;SDS011;646;48.696;9.114;2022-09-06T02:20:57;5.13;;;4.70;;
1306;SDS011;646;48.696;9.114;2022-09-06T02:23:27;5.40;;;5.00;;
1306;SDS011;646;48.696;9.114;2022-09-06T02:25:58;6.33;;;5.80;;
1306;SDS011;646;48.696;9.114;2022-09-06T02:28:37;6.80;;;6.20;;
1306;SDS011;646;48.696;9.114;2022-09-06T02:31:06;7.20;;;6.60;;
1306;SDS011;646;48.696;9.114;2022-09-06T02:33:37;8.23;;;6.50;;
1306;SDS011;646;48.696;9.114;2022-09-06T02:36:05;6.17;;;5.60;;
1306;SDS011;646;48.696;9.114;2022-09-06T02:38:33;7.37;;;6.67;;
1306;SDS011;646;48.696;9.114;2022-09-06T02:41:00;6.40;;;6.00;;
1306;SDS011;646;48.696;9.114;2022-09-06T02:43:27;6.40;;;5.90;;
1306;SDS011;646;48.696;9.114;2022-09-06T02:45:52;6.33;;;5.83;;
1306;SDS011;646;48.696;9.114;2022-09-06T02:48:18;6.17;;;5.67;;
1306;SDS011;646;48.696;9.114;2022-09-06T02:50:43;7.97;;;5.97;;
1306;SDS011;646;48.696;9.114;2022-09-06T02:53:09;12.57;;;7.70;;
1306;SDS011;646;48.696;9.114;2022-09-06T02:55:37;10.50;;;7.30;;
1306;SDS011;646;48.696;9.114;2022-09-06T02:58:03;8.00;;;7.20;;
1306;SDS011;646;48.696;9.114;2022-09-06T03:00:30;7.77;;;7.00;;
1306;SDS011;646;48.696;9.114;2022-09-06T03:02:57;8.30;;;6.20;;
1306;SDS011;646;48.696;9.114;2022-09-06T03:05:23;8.17;;;6.20;;
1306;SDS011;646;48.696;9.114;2022-09-06T03:07:50;7.63;;;5.70;;
1306;SDS011;646;48.696;9.114;2022-09-06T03:10:18;7.50;;;5.87;;
1306;SDS011;646;48.696;9.114;2022-09-06T03:12:44;8.10;;;7.10;;
1306;SDS011;646;48.696;9.114;2022-09-06T03:15:10;7.40;;;6.80;;
1306;SDS011;646;48.696;9.114;2022-09-06T03:17:36;7.20;;;6.50;;
1306;SDS011;646;48.696;9.114;2022-09-06T03:20:03;6.70;;;6.10;;
1306;SDS011;646;48.696;9.114;2022-09-06T03:22:29;7.27;;;6.57;;
1306;SDS011;646;48.696;9.114;2022-09-06T03:24:55;7.83;;;6.50;;
1306;SDS011;646;48.696;9.114;2022-09-06T03:27:21;6.83;;;6.23;;
1306;SDS011;646;48.696;9.114;2022-09-06T03:29:47;7.10;;;6.50;;
1306;SDS011;646;48.696;9.114;2022-09-06T03:32:12;6.73;;;6.17;;
1306;SDS011;646;48.696;9.114;2022-09-06T03:34:38;7.37;;;6.20;;
1306;SDS011;646;48.696;9.114;2022-09-06T03:37:04;7.40;;;6.70;;
1306;SDS011;646;48.696;9.114;2022-09-06T03:39:29;7.53;;;6.80;;
1306;SDS011;646;48.696;9.114;2022-09-06T03:41:55;6.90;;;6.30;;
1306;SDS011;646;48.696;9.114;2022-09-06T03:44:20;6.80;;;6.30;;
1306;SDS011;646;48.696;9.114;2022-09-06T03:46:46;7.37;;;6.77;;
1306;SDS011;646;48.696;9.114;2022-09-06T03:49:11;6.80;;;6.20;;
1306;SDS011;646;48.696;9.114;2022-09-06T03:51:37;6.93;;;6.33;;
1306;SDS011;646;48.696;9.114;2022-09-06T03:54:02;7.30;;;6.60;;
1306;SDS011;646;48.696;9.114;2022-09-06T03:56:28;7.30;;;6.10;;
1306;SDS011;646;48.696;9.114;2022-09-06T03:58:53;6.80;;;6.10;;
1306;SDS011;646;48.696;9.114;2022-09-06T04:01:19;7.90;;;7.10;;
1306;SDS011;646;48.696;9.114;2022-09-06T04:03:45;10.70;;;6.97;;
1306;SDS011;646;48.696;9.114;2022-09-06T04:06:10;7.60;;;7.00;;
1306;SDS011;646;48.696;9.114;2022-09-06T04:08:36;8.10;;;7.30;;
1306;SDS011;646;48.696;9.114;2022-09-06T04:11:02;7.97;;;7.33;;
1306;SDS011;646;48.696;9.114;2022-09-06T04:13:29;6.80;;;6.20;;
1306;SDS011;646;48.696;9.114;2022-09-06T04:15:56;9.40;;;7.13;;
1306;SDS011;646;48.696;9.114;2022-09-06T04:18:22;7.90;;;7.10;;
1306;SDS011;646;48.696;9.114;2022-09-06T04:20:48;7.60;;;6.90;;
1306;SDS011;646;48.696;9.114;2022-09-06T04:23:15;7.33;;;6.73;;
1306;SDS011;646;48.696;9.114;2022-09-06T04:25:45;7.33;;;6.63;;
1306;SDS011;646;48.696;9.114;2022-09-06T04:28:11;7.73;;;7.03;;
1306;SDS011;646;48.696;9.114;2022-09-06T04:30:37;6.90;;;6.30;;
1306;SDS011;646;48.696;9.114;2022-09-06T04:33:02;6.97;;;6.40;;
1306;SDS011;646;48.696;9.114;2022-09-06T04:35:28;7.70;;;7.10;;
1306;SDS011;646;48.696;9.114;2022-09-06T04:37:53;7.80;;;7.00;;
1306;SDS011;646;48.696;9.114;2022-09-06T04:40:19;7.50;;;6.90;;
1306;SDS011;646;48.696;9.114;2022-09-06T04:42:44;7.70;;;7.10;;
1306;SDS011;646;48.696;9.114;2022-09-06T04:45:10;7.40;;;6.70;;
1306;SDS011;646;48.696;9.114;2022-09-06T04:47:36;8.00;;;7.23;;
1306;SDS011;646;48.696;9.114;2022-09-06T04:50:02;7.57;;;6.97;;
1306;SDS011;646;48.696;9.114;2022-09-06T04:52:27;9.07;;;7.80;;
1306;SDS011;646;48.696;9.114;2022-09-06T04:54:53;8.47;;;7.70;;
1306;SDS011;646;48.696;9.114;2022-09-06T04:57:18;7.73;;;7.13;;
1306;SDS011;646;48.696;9.114;2022-09-06T04:59:44;7.60;;;7.00;;
1306;SDS011;646;48.696;9.114;2022-09-06T05:02:09;7.23;;;6.63;;
1306;SDS011;646;48.696;9.114;2022-09-06T05:04:35;8.23;;;7.63;;
1306;SDS011;646;48.696;9.114;2022-09-06T05:07:01;8.63;;;7.97;;
1306;SDS011;646;48.696;9.114;2022-09-06T05:09:28;8.00;;;7.30;;
1306;SDS011;646;48.696;9.114;2022-09-06T05:11:54;7.97;;;7.30;;
1306;SDS011;646;48.696;9.114;2022-09-06T05:14:20;8.30;;;7.40;;
1306;SDS011;646;48.696;9.114;2022-09-06T05:16:45;8.60;;;7.57;;
1306;SDS011;646;48.696;9.114;2022-09-06T05:19:11;8.03;;;7.33;;
1306;SDS011;646;48.696;9.114;2022-09-06T05:21:36;8.60;;;7.90;;
1306;SDS011;646;48.696;9.114;2022-09-06T05:24:02;8.30;;;7.60;;
1306;SDS011;646;48.696;9.114;2022-09-06T05:26:28;7.50;;;6.90;;
1306;SDS011;646;48.696;9.114;2022-09-06T05:28:53;8.30;;;7.60;;
1306;SDS011;646;48.696;9.114;2022-09-06T05:31:23;8.70;;;7.90;;
1306;SDS011;646;48.696;9.114;2022-09-06T05:33:53;8.53;;;7.73;;
1306;SDS011;646;48.696;9.114;2022-09-06T05:36:19;7.70;;;6.80;;
1306;SDS011;646;48.696;9.114;2022-09-06T05:38:47;8.60;;;7.80;;
1306;SDS011;646;48.696;9.114;2022-09-06T05:41:15;7.47;;;6.87;;
1306;SDS011;646;48.696;9.114;2022-09-06T05:43:41;8.57;;;7.83;;
1306;SDS011;646;48.696;9.114;2022-09-06T05:46:07;7.93;;;7.13;;
1306;SDS011;646;48.696;9.114;2022-09-06T05:48:33;6.90;;;6.30;;
1306;SDS011;646;48.696;9.114;2022-09-06T05:51:05;8.63;;;7.93;;
1306;SDS011;646;48.696;9.114;2022-09-06T05:53:39;7.70;;;7.10;;
1306;SDS011;646;48.696;9.114;2022-09-06T05:56:12;7.17;;;6.57;;
1306;SDS011;646;48.696;9.114;2022-09-06T05:58:38;7.63;;;7.03;;
1306;SDS011;646;48.696;9.114;2022-09-06T06:01:20;7.33;;;6.70;;
1306;SDS011;646;48.696;9.114;2022-09-06T06:04:01;8.30;;;7.60;;
1306;SDS011;646;48.696;9.114;2022-09-06T06:06:29;8.90;;;8.20;;
1306;SDS011;646;48.696;9.114;2022-09-06T06:08:57;7.83;;;7.10;;
1306;SDS011;646;48.696;9.114;2022-09-06T06:11:23;12.30;;;7.53;;
1306;SDS011;646;48.696;9.114;2022-09-06T06:13:51;6.80;;;6.30;;
1306;SDS011;646;48.696;9.114;2022-09-06T06:16:17;7.00;;;6.30;;
1306;SDS011;646;48.696;9.114;2022-09-06T06:18:44;6.77;;;6.27;;
1306;SDS011;646;48.696;9.114;2022-09-06T06:21:11;6.93;;;6.33;;
1306;SDS011;646;48.696;9.114;2022-09-06T06:23:44;6.23;;;5.80;;
1306;SDS011;646;48.696;9.114;2022-09-06T06:26:12;7.27;;;6.67;;
1306;SDS011;646;48.696;9.114;2022-09-06T06:28:38;7.13;;;6.37;;
1306;SDS011;646;48.696;9.114;2022-09-06T06:31:05;7.70;;;7.00;;
1306;SDS011;646;48.696;9.114;2022-09-06T06:33:32;6.97;;;6.37;;
1306;SDS011;646;48.696;9.114;2022-09-06T06:36:02;7.23;;;6.63;;
1306;SDS011;646;48.696;9.114;2022-09-06T06:38:30;7.10;;;6.50;;
1306;SDS011;646;48.696;9.114;2022-09-06T06:41:00;7.87;;;7.20;;
1306;SDS011;646;48.696;9.114;2022-09-06T06:43:26;9.17;;;8.30;;
1306;SDS011;646;48.696;9.114;2022-09-06T06:45:52;8.80;;;8.00;;
1306;SDS011;646;48.696;9.114;2022-09-06T06:48:18;8.20;;;7.50;;
1306;SDS011;646;48.696;9.114;2022-09-06T06:50:44;7.90;;;7.20;;
1306;SDS011;646;48.696;9.114;2022-09-06T06:53:10;7.80;;;7.20;;
1306;SDS011;646;48.696;9.114;2022-09-06T06:55:35;8.50;;;7.80;;
1306;SDS011;646;48.696;9.114;2022-09-06T06:58:01;8.43;;;7.73;;
1306;SDS011;646;48.696;9.114;2022-09-06T07:00:27;7.67;;;6.97;;
1306;SDS011;646;48.696;9.114;2022-09-06T07:02:53;7.53;;;6.93;;
1306;SDS011;646;48.696;9.114;2022-09-06T07:05:20;8.17;;;7.53;;
1306;SDS011;646;48.696;9.114;2022-09-06T07:07:46;8.47;;;7.77;;
1306;SDS011;646;48.696;9.114;2022-09-06T07:10:12;9.30;;;8.67;;
1306;SDS011;646;48.696;9.114;2022-09-06T07:12:37;8.13;;;7.53;;
1306;SDS011;646;48.696;9.114;2022-09-06T07:15:03;8.70;;;7.90;;
1306;SDS011;646;48.696;9.114;2022-09-06T07:17:29;7.77;;;7.10;;
1306;SDS011;646;48.696;9.114;2022-09-06T07:19:54;8.47;;;7.60;;
1306;SDS011;646;48.696;9.114;2022-09-06T07:22:20;8.00;;;7.30;;
1306;SDS011;646;48.696;9.114;2022-09-06T07:24:45;7.90;;;7.30;;
1306;SDS011;646;48.696;9.114;2022-09-06T07:27:11;7.57;;;6.97;;
1306;SDS011;646;48.696;9.114;2022-09-06T07:29:36;7.23;;;6.60;;
1306;SDS011;646;48.696;9.114;2022-09-06T07:32:02;7.17;;;6.57;;
1306;SDS011;646;48.696;9.114;2022-09-06T07:34:27;7.67;;;6.97;;
1306;SDS011;646;48.696;9.114;2022-09-06T07:36:53;7.23;;;6.67;;
1306;SDS011;646;48.696;9.114;2022-09-06T07:39:20;7.30;;;6.70;;
1306;SDS011;646;48.696;9.114;2022-09-06T07:41:45;7.20;;;6.70;;
1306;SDS011;646;48.696;9.114;2022-09-06T07:44:11;7.30;;;6.70;;
1306;SDS011;646;48.696;9.114;2022-09-06T07:46:37;7.00;;;6.50;;
1306;SDS011;646;48.696;9.114;2022-09-06T07:49:03;7.77;;;7.13;;
1306;SDS011;646;48.696;9.114;2022-09-06T07:51:29;6.80;;;6.30;;
1306;SDS011;646;48.696;9.114;2022-09-06T07:53:55;6.43;;;5.93;;
1306;SDS011;646;48.696;9.114;2022-09-06T07:56:21;6.60;;;6.10;;
1306;SDS011;646;48.696;9.114;2022-09-06T07:58:47;6.80;;;6.20;;
1306;SDS011;646;48.696;9.114;2022-09-06T08:01:33;7.47;;;6.73;;
1306;SDS011;646;48.696;9.114;2022-09-06T08:04:06;6.20;;;5.70;;
1306;SDS011;646;48.696;9.114;2022-09-06T08:06:34;6.83;;;6.33;;
1306;SDS011;646;48.696;9.114;2022-09-06T08:09:01;6.67;;;6.17;;
1306;SDS011;646;48.696;9.114;2022-09-06T08:11:29;6.93;;;6.43;;
1306;SDS011;646;48.696;9.114;2022-09-06T08:13:56;7.10;;;6.60;;
1306;SDS011;646;48.696;9.114;2022-09-06T08:16:24;6.40;;;5.90;;
1306;SDS011;646;48.696;9.114;2022-09-06T08:18:52;7.73;;;7.20;;
1306;SDS011;646;48.696;9.114;2022-09-06T08:21:19;7.07;;;6.47;;
1306;SDS011;646;48.696;9.114;2022-09-06T08:23:48;6.70;;;6.10;;
1306;SDS011;646;48.696;9.114;2022-09-06T08:26:19;6.17;;;5.67;;
1306;SDS011;646;48.696;9.114;2022-09-06T08:28:46;6.33;;;5.90;;
1306;SDS011;646;48.696;9.114;2022-09-06T08:31:13;5.80;;;5.30;;
1306;SDS011;646;48.696;9.114;2022-09-06T08:33:40;6.27;;;5.80;;
1306;SDS011;646;48.696;9.114;2022-09-06T08:36:06;6.17;;;5.67;;
1306;SDS011;646;48.696;9.114;2022-09-06T08:38:33;6.87;;;6.37;;
1306;SDS011;646;48.696;9.114;2022-09-06T08:41:09;6.00;;;5.50;;
1306;SDS011;646;48.696;9.114;2022-09-06T08:43:38;6.47;;;5.87;;
1306;SDS011;646;48.696;9.114;2022-09-06T08:46:10;6.70;;;6.10;;
1306;SDS011;646;48.696;9.114;2022-09-06T08:48:36;5.50;;;5.20;;
1306;SDS011;646;48.696;9.114;2022-09-06T08:53:29;6.27;;;5.63;;
1306;SDS011;646;48.696;9.114;2022-09-06T08:55:57;5.57;;;5.17;;
1306;SDS011;646;48.696;9.114;2022-09-06T09:01:17;5.13;;;4.77;;
1306;SDS011;646;48.696;9.114;2022-09-06T09:03:47;6.27;;;5.67;;
1306;SDS011;646;48.696;9.114;2022-09-06T09:06:12;5.63;;;5.13;;
1306;SDS011;646;48.696;9.114;2022-09-06T09:11:16;5.00;;;4.50;;
1306;SDS011;646;48.696;9.114;2022-09-06T09:16:25;5.20;;;4.50;;
1306;SDS011;646;48.696;9.114;2022-09-06T09:18:52;4.90;;;4.57;;
1306;SDS011;646;48.696;9.114;2022-09-06T09:21:20;5.83;;;5.43;;
1306;SDS011;646;48.696;9.114;2022-09-06T09:23:50;4.90;;;4.50;;
1306;SDS011;646;48.696;9.114;2022-09-06T09:26:21;6.37;;;4.60;;
1306;SDS011;646;48.696;9.114;2022-09-06T09:31:49;4.70;;;4.30;;
1306;SDS011;646;48.696;9.114;2022-09-06T09:34:29;6.37;;;4.77;;
1306;SDS011;646;48.696;9.114;2022-09-06T09:39:47;4.50;;;4.20;;
1306;SDS011;646;48.696;9.114;2022-09-06T09:42:25;5.03;;;4.53;;
1306;SDS011;646;48.696;9.114;2022-09-06T09:44:55;5.03;;;4.63;;
1306;SDS011;646;48.696;9.114;2022-09-06T09:47:25;5.03;;;4.50;;
1306;SDS011;646;48.696;9.114;2022-09-06T09:49:52;5.03;;;4.33;;
1306;SDS011;646;48.696;9.114;2022-09-06T09:52:28;4.67;;;4.37;;
1306;SDS011;646;48.696;9.114;2022-09-06T09:55:04;4.47;;;3.60;;
1306;SDS011;646;48.696;9.114;2022-09-06T09:57:31;4.40;;;3.63;;
1306;SDS011;646;48.696;9.114;2022-09-06T10:00:10;7.40;;;4.50;;
1306;SDS011;646;48.696;9.114;2022-09-06T10:02:39;4.60;;;4.20;;
1306;SDS011;646;48.696;9.114;2022-09-06T10:07:53;3.97;;;3.67;;
1306;SDS011;646;48.696;9.114;2022-09-06T10:10:23;8.20;;;5.20;;
1306;SDS011;646;48.696;9.114;2022-09-06T10:13:04;7.80;;;4.63;;
1306;SDS011;646;48.696;9.114;2022-09-06T10:15:37;4.30;;;3.90;;
1306;SDS011;646;48.696;9.114;2022-09-06T10:18:04;4.80;;;4.40;;
1306;SDS011;646;48.696;9.114;2022-09-06T10:26:22;4.80;;;4.30;;
1306;SDS011;646;48.696;9.114;2022-09-06T10:29:02;6.43;;;4.70;;
1306;SDS011;646;48.696;9.114;2022-09-06T10:39:34;5.00;;;4.50;;
1306;SDS011;646;48.696;9.114;2022-09-06T10:47:13;6.63;;;6.00;;
1306;SDS011;646;48.696;9.114;2022-09-06T10:49:40;5.43;;;5.03;;
1306;SDS011;646;48.696;9.114;2022-09-06T10:52:10;5.80;;;5.30;;
1306;SDS011;646;48.696;9.114;2022-09-06T10:54:40;5.40;;;4.90;;
1306;SDS011;646;48.696;9.114;2022-09-06T10:57:14;6.10;;;5.50;;
1306;SDS011;646;48.696;9.114;2022-09-06T11:02:34;4.90;;;4.40;;
1306;SDS011;646;48.696;9.114;2022-09-06T11:05:23;5.43;;;4.83;;
1306;SDS011;646;48.696;9.114;2022-09-06T11:07:54;6.27;;;5.67;;
1306;SDS011;646;48.696;9.114;2022-09-06T11:13:01;6.53;;;5.20;;
1306;SDS011;646;48.696;9.114;2022-09-06T11:15:40;5.63;;;5.17;;
1306;SDS011;646;48.696;9.114;2022-09-06T11:18:21;5.67;;;5.00;;
1306;SDS011;646;48.696;9.114;2022-09-06T11:21:09;6.83;;;5.00;;
1306;SDS011;646;48.696;9.114;2022-09-06T11:24:03;6.20;;;4.30;;
1306;SDS011;646;48.696;9.114;2022-09-06T11:26:44;5.90;;;4.40;;
1306;SDS011;646;48.696;9.114;2022-09-06T11:29:23;5.50;;;4.30;;
1306;SDS011;646;48.696;9.114;2022-09-06T11:31:54;5.67;;;4.60;;
1306;SDS011;646;48.696;9.114;2022-09-06T11:34:31;5.07;;;4.60;;
1306;SDS011;646;48.696;9.114;2022-09-06T11:39:30;5.00;;;4.70;;
1306;SDS011;646;48.696;9.114;2022-09-06T11:41:58;6.10;;;4.30;;
1306;SDS011;646;48.696;9.114;2022-09-06T11:55:22;4.93;;;3.97;;
1306;SDS011;646;48.696;9.114;2022-09-06T11:57:54;5.20;;;4.20;;
1306;SDS011;646;48.696;9.114;2022-09-06T12:00:22;3.57;;;3.17;;
1306;SDS011;646;48.696;9.114;2022-09-06T12:02:49;5.70;;;3.70;;
1306;SDS011;646;48.696;9.114;2022-09-06T12:13:31;4.03;;;3.50;;
1306;SDS011;646;48.696;9.114;2022-09-06T12:15:58;4.50;;;3.53;;
1306;SDS011;646;48.696;9.114;2022-09-06T12:21:07;3.70;;;3.20;;
1306;SDS011;646;48.696;9.114;2022-09-06T12:26:03;4.40;;;3.67;;
1306;SDS011;646;48.696;9.114;2022-09-06T12:28:31;5.73;;;3.50;;
1306;SDS011;646;48.696;9.114;2022-09-06T12:30:58;4.00;;;3.23;;
1306;SDS011;646;48.696;9.114;2022-09-06T12:33:27;4.00;;;3.23;;
1306;SDS011;646;48.696;9.114;2022-09-06T12:36:11;3.90;;;3.33;;
1306;SDS011;646;48.696;9.114;2022-09-06T12:38:39;3.30;;;3.00;;
1306;SDS011;646;48.696;9.114;2022-09-06T12:41:27;3.50;;;2.97;;
1306;SDS011;646;48.696;9.114;2022-09-06T12:43:54;3.60;;;3.00;;
1306;SDS011;646;48.696;9.114;2022-09-06T12:46:22;4.03;;;3.20;;
1306;SDS011;646;48.696;9.114;2022-09-06T12:49:09;3.47;;;3.27;;
1306;SDS011;646;48.696;9.114;2022-09-06T12:51:36;3.07;;;2.87;;
1306;SDS011;646;48.696;9.114;2022-09-06T12:54:05;4.40;;;2.97;;
1306;SDS011;646;48.696;9.114;2022-09-06T12:56:44;7.07;;;3.63;;
1306;SDS011;646;48.696;9.114;2022-09-06T12:59:10;3.57;;;3.17;;
1306;SDS011;646;48.696;9.114;2022-09-06T13:01:43;5.90;;;3.37;;
1306;SDS011;646;48.696;9.114;2022-09-06T13:06:54;3.20;;;2.90;;
1306;SDS011;646;48.696;9.114;2022-09-06T13:09:22;3.07;;;2.80;;
1306;SDS011;646;48.696;9.114;2022-09-06T13:11:50;3.60;;;2.70;;
1306;SDS011;646;48.696;9.114;2022-09-06T13:14:22;4.07;;;3.30;;
1306;SDS011;646;48.696;9.114;2022-09-06T13:16:51;3.23;;;3.03;;
1306;SDS011;646;48.696;9.114;2022-09-06T13:21:57;4.13;;;3.33;;
1306;SDS011;646;48.696;9.114;2022-09-06T13:24:24;3.70;;;3.30;;
1306;SDS011;646;48.696;9.114;2022-09-06T13:27:14;5.47;;;4.23;;
1306;SDS011;646;48.696;9.114;2022-09-06T13:29:56;4.50;;;4.10;;
1306;SDS011;646;48.696;9.114;2022-09-06T13:32:24;9.00;;;4.70;;
1306;SDS011;646;48.696;9.114;2022-09-06T13:34:51;5.43;;;5.03;;
1306;SDS011;646;48.696;9.114;2022-09-06T13:37:21;6.17;;;5.17;;
1306;SDS011;646;48.696;9.114;2022-09-06T13:39:55;5.93;;;5.00;;
1306;SDS011;646;48.696;9.114;2022-09-06T13:44:51;5.33;;;4.83;;
1306;SDS011;646;48.696;9.114;2022-09-06T13:47:17;5.20;;;4.50;;
1306;SDS011;646;48.696;9.114;2022-09-06T13:49:42;5.13;;;4.70;;
1306;SDS011;646;48.696;9.114;2022-09-06T13:52:08;5.40;;;5.00;;
1306;SDS011;646;48.696;9.114;2022-09-06T13:54:33;6.43;;;4.93;;
1306;SDS011;646;48.696;9.114;2022-09-06T13:56:59;5.50;;;5.00;;
1306;SDS011;646;48.696;9.114;2022-09-06T13:59:25;4.53;;;4.23;;
1306;SDS011;646;48.696;9.114;2022-09-06T14:02:05;4.97;;;4.57;;
1306;SDS011;646;48.696;9.114;2022-09-06T14:04:33;5.53;;;4.97;;
1306;SDS011;646;48.696;9.114;2022-09-06T14:07:00;5.20;;;4.80;;
1306;SDS011;646;48.696;9.114;2022-09-06T14:09:26;5.40;;;4.93;;
1306;SDS011;646;48.696;9.114;2022-09-06T14:11:52;5.20;;;4.80;;
1306;SDS011;646;48.696;9.114;2022-09-06T14:14:17;5.63;;;5.10;;
1306;SDS011;646;48.696;9.114;2022-09-06T14:16:44;4.97;;;4.60;;
1306;SDS011;646;48.696;9.114;2022-09-06T14:19:11;4.83;;;4.43;;
1306;SDS011;646;48.696;9.114;2022-09-06T14:21:37;6.63;;;4.60;;
1306;SDS011;646;48.696;9.114;2022-09-06T14:24:03;5.83;;;5.53;;
1306;SDS011;646;48.696;9.114;2022-09-06T14:26:30;5.80;;;5.30;;
1306;SDS011;646;48.696;9.114;2022-09-06T14:28:56;5.03;;;4.50;;
1306;SDS011;646;48.696;9.114;2022-09-06T14:31:22;6.17;;;5.47;;
1306;SDS011;646;48.696;9.114;2022-09-06T14:33:50;10.33;;;6.83;;
1306;SDS011;646;48.696;9.114;2022-09-06T14:36:18;5.47;;;4.97;;
1306;SDS011;646;48.696;9.114;2022-09-06T14:38:45;4.20;;;3.90;;
1306;SDS011;646;48.696;9.114;2022-09-06T14:41:11;3.97;;;3.63;;
1306;SDS011;646;48.696;9.114;2022-09-06T14:43:38;3.93;;;3.63;;
1306;SDS011;646;48.696;9.114;2022-09-06T14:46:06;4.03;;;3.73;;
1306;SDS011;646;48.696;9.114;2022-09-06T14:48:35;4.63;;;4.17;;
1306;SDS011;646;48.696;9.114;2022-09-06T14:51:08;4.63;;;4.20;;
1306;SDS011;646;48.696;9.114;2022-09-06T14:53:39;6.03;;;4.10;;
1306;SDS011;646;48.696;9.114;2022-09-06T14:56:06;5.70;;;4.30;;
1306;SDS011;646;48.696;9.114;2022-09-06T14:58:32;6.40;;;5.03;;
1306;SDS011;646;48.696;9.114;2022-09-06T15:01:12;5.97;;;5.37;;
1306;SDS011;646;48.696;9.114;2022-09-06T15:03:40;5.07;;;4.67;;
1306;SDS011;646;48.696;9.114;2022-09-06T15:06:07;4.40;;;4.03;;
1306;SDS011;646;48.696;9.114;2022-09-06T15:08:33;5.93;;;5.00;;
1306;SDS011;646;48.696;9.114;2022-09-06T15:10:59;5.70;;;5.00;;
1306;SDS011;646;48.696;9.114;2022-09-06T15:13:25;5.10;;;4.60;;
1306;SDS011;646;48.696;9.114;2022-09-06T15:15:51;5.87;;;5.37;;
1306;SDS011;646;48.696;9.114;2022-09-06T15:18:18;5.57;;;5.00;;
1306;SDS011;646;48.696;9.114;2022-09-06T15:20:43;5.43;;;4.93;;
1306;SDS011;646;48.696;9.114;2022-09-06T15:23:10;6.10;;;4.77;;
1306;SDS011;646;48.696;9.114;2022-09-06T15:25:36;5.50;;;4.97;;
1306;SDS011;646;48.696;9.114;2022-09-06T15:28:01;5.33;;;4.93;;
1306;SDS011;646;48.696;9.114;2022-09-06T15:30:27;4.97;;;4.50;;
1306;SDS011;646;48.696;9.114;2022-09-06T15:32:52;6.97;;;4.40;;
1306;SDS011;646;48.696;9.114;2022-09-06T15:35:19;5.40;;;5.00;;
1306;SDS011;646;48.696;9.114;2022-09-06T15:37:45;4.70;;;4.30;;
1306;SDS011;646;48.696;9.114;2022-09-06T15:40:11;4.50;;;4.10;;
1306;SDS011;646;48.696;9.114;2022-09-06T15:42:37;4.07;;;3.40;;
1306;SDS011;646;48.696;9.114;2022-09-06T15:45:03;3.80;;;3.50;;
1306;SDS011;646;48.696;9.114;2022-09-06T15:47:29;3.93;;;3.63;;
1306;SDS011;646;48.696;9.114;2022-09-06T15:49:55;4.43;;;4.03;;
1306;SDS011;646;48.696;9.114;2022-09-06T15:52:21;4.80;;;4.33;;
1306;SDS011;646;48.696;9.114;2022-09-06T15:54:46;3.90;;;3.60;;
1306;SDS011;646;48.696;9.114;2022-09-06T15:57:31;4.00;;;3.70;;
1306;SDS011;646;48.696;9.114;2022-09-06T15:59:56;3.87;;;3.57;;
1306;SDS011;646;48.696;9.114;2022-09-06T16:02:22;4.33;;;4.03;;
1306;SDS011;646;48.696;9.114;2022-09-06T16:04:47;4.60;;;4.20;;
1306;SDS011;646;48.696;9.114;2022-09-06T16:07:13;4.30;;;3.90;;
1306;SDS011;646;48.696;9.114;2022-09-06T16:09:38;5.67;;;5.20;;
1306;SDS011;646;48.696;9.114;2022-09-06T16:12:04;5.50;;;4.67;;
1306;SDS011;646;48.696;9.114;2022-09-06T16:14:30;4.90;;;4.50;;
1306;SDS011;646;48.696;9.114;2022-09-06T16:16:55;4.80;;;4.40;;
1306;SDS011;646;48.696;9.114;2022-09-06T16:19:21;5.43;;;4.97;;
1306;SDS011;646;48.696;9.114;2022-09-06T16:21:48;5.63;;;4.90;;
1306;SDS011;646;48.696;9.114;2022-09-06T16:24:13;6.50;;;5.13;;
1306;SDS011;646;48.696;9.114;2022-09-06T16:26:42;5.30;;;4.90;;
1306;SDS011;646;48.696;9.114;2022-09-06T16:29:10;4.93;;;4.53;;
1306;SDS011;646;48.696;9.114;2022-09-06T16:31:37;5.30;;;4.90;;
1306;SDS011;646;48.696;9.114;2022-09-06T16:34:03;5.67;;;5.17;;
1306;SDS011;646;48.696;9.114;2022-09-06T16:36:28;4.70;;;4.30;;
1306;SDS011;646;48.696;9.114;2022-09-06T16:38:54;5.40;;;4.90;;
1306;SDS011;646;48.696;9.114;2022-09-06T16:41:31;5.80;;;5.30;;
1306;SDS011;646;48.696;9.114;2022-09-06T16:44:01;5.40;;;5.00;;
1306;SDS011;646;48.696;9.114;2022-09-06T16:46:26;5.23;;;4.93;;
1306;SDS011;646;48.696;9.114;2022-09-06T16:48:57;5.27;;;4.80;;
1306;SDS011;646;48.696;9.114;2022-09-06T16:51:28;4.80;;;4.37;;
1306;SDS011;646;48.696;9.114;2022-09-06T16:53:55;5.87;;;5.20;;
1306;SDS011;646;48.696;9.114;2022-09-06T16:56:22;4.73;;;4.43;;
1306;SDS011;646;48.696;9.114;2022-09-06T16:58:50;4.50;;;4.10;;
1306;SDS011;646;48.696;9.114;2022-09-06T17:01:20;4.30;;;4.00;;
1306;SDS011;646;48.696;9.114;2022-09-06T17:03:46;4.47;;;4.17;;
1306;SDS011;646;48.696;9.114;2022-09-06T17:06:13;4.87;;;3.40;;
1306;SDS011;646;48.696;9.114;2022-09-06T17:08:38;4.17;;;3.87;;
1306;SDS011;646;48.696;9.114;2022-09-06T17:11:05;4.27;;;3.97;;
1306;SDS011;646;48.696;9.114;2022-09-06T17:13:50;3.67;;;3.47;;
1306;SDS011;646;48.696;9.114;2022-09-06T17:16:18;4.13;;;3.80;;
1306;SDS011;646;48.696;9.114;2022-09-06T17:19:16;3.80;;;3.57;;
1306;SDS011;646;48.696;9.114;2022-09-06T17:21:42;4.37;;;3.93;;
1306;SDS011;646;48.696;9.114;2022-09-06T17:24:08;4.00;;;3.80;;